Data for 12/02/2009

Time Sea-Level Adjusted Pressure Absolute Pressure Temperature Relative Humidity Dew Point   
(mb) (inHg) (mb) (inHg) (C) (F) (%) (C) (F)
00:05 1021 30.15 850 25.1 -14 6.9 79 -16.8 1.7
00:10 1021 30.15 850 25.1 -14.1 6.7 79 -16.9 1.6
00:15 1021 30.15 850 25.1 -13.9 7 79 -16.8 1.7
00:20 1021 30.15 850 25.1 -13.4 7.8 78 -16.6 2.2
00:25 1021 30.15 850 25.1 -13.3 8.1 77 -16.6 2.2
00:30 1021 30.15 850 25.1 -13.2 8.2 75 -16.8 1.8
00:35 1021 30.15 850 25.1 -13.5 7.7 74 -17.2 1.1
00:40 1021 30.15 850 25.1 -13.8 7.1 76 -17.2 1
00:45 1021 30.15 850 25.1 -13.8 7.1 77 -17.1 1.3
00:50 1021 30.15 850 25.1 -13.9 7.1 77 -17 1.4
00:55 1021 30.15 850 25.1 -13.7 7.3 77 -16.9 1.6
01:00 1021 30.15 850 25.1 -14 6.8 76 -17.4 0.8
01:05 1021 30.15 850 25.1 -13.5 7.8 75 -17.1 1.2
01:10 1021 30.15 850 25.1 -13.6 7.6 75 -17.1 1.3
01:15 1021 30.15 850 25.1 -13.8 7.1 76 -17.2 1.1
01:20 1021 30.15 850 25.1 -13.8 7.1 76 -17.2 1.1
01:25 1021 30.15 850 25.1 -13.8 7.2 75 -17.3 0.9
01:30 1021 30.15 850 25.1 -14.1 6.7 77 -17.3 0.8
01:35 1021 30.15 850 25.1 -14.3 6.3 78 -17.2 1
01:40 1021 30.15 850 25.1 -14.3 6.3 77 -17.4 0.6
01:45 1021 30.15 850 25.1 -14.6 5.7 78 -17.6 0.3
01:50 1021 30.15 850 25.1 -14.2 6.5 74 -17.9 -0.3
01:55 1021 30.15 850 25.1 -14 6.9 77 -17.2 1.1
02:00 1021 30.15 850 25.1 -13.8 7.2 74 -17.5 0.5
02:05 1021 30.15 850 25.1 -13.7 7.3 69 -18.3 -1
02:10 1021 30.15 850 25.1 -13.7 7.4 70 -18.1 -0.6
02:15 1021 30.15 850 25.1 -14.4 6.1 72 -18.4 -1.1
02:20 1021 30.15 850 25.1 -14.7 5.6 72 -18.6 -1.5
02:25 1021 30.15 850 25.1 -14.8 5.4 73 -18.6 -1.4
02:30 1021 30.15 850 25.1 -14.8 5.3 73 -18.7 -1.6
02:35 1021 30.15 850 25.1 -15.2 4.7 74 -18.8 -1.9
02:40 1021 30.15 850 25.1 -15.5 4.2 76 -18.8 -1.9
02:45 1021 30.15 850 25.1 -15.7 3.8 77 -18.9 -2
02:50 1021 30.15 850 25.1 -15.8 3.5 76 -19.1 -2.3
02:55 1021 30.15 851 25.13 -16 3.2 77 -19.1 -2.4
03:00 1021 30.15 851 25.13 -16.1 3.1 78 -19.1 -2.4
03:05 1021 30.15 851 25.13 -15.9 3.4 76 -19.2 -2.5
03:10 1021 30.15 851 25.13 -15.4 4.2 75 -18.9 -2.1
03:15 1021 30.15 851 25.13 -15.2 4.7 76 -18.6 -1.4
03:20 1021 30.15 851 25.13 -14.9 5.1 76 -18.3 -1
03:25 1021 30.15 851 25.13 -14.8 5.3 76 -18.2 -0.8
03:30 1021 30.15 851 25.13 -14.9 5.2 76 -18.3 -1
03:35 1021 30.15 851 25.13 -15.2 4.6 77 -18.3 -1
03:40 1022 30.18 851 25.13 -15.8 3.6 81 -18.3 -0.9
03:45 1022 30.18 851 25.13 -15.6 4 79 -18.4 -1.1
03:50 1022 30.18 851 25.13 -15.6 4 80 -18.2 -0.8
03:55 1022 30.18 851 25.13 -15.3 4.5 78 -18.3 -0.9
04:00 1022 30.18 851 25.13 -15.4 4.2 78 -18.4 -1.1
04:05 1022 30.18 851 25.13 -15.9 3.5 79 -18.7 -1.6
04:10 1021 30.15 851 25.13 -16.2 2.9 81 -18.7 -1.6
04:15 1021 30.15 851 25.13 -16 3.3 81 -18.5 -1.3
04:20 1021 30.15 851 25.13 -15.6 3.9 81 -18.2 -0.8
04:25 1021 30.15 851 25.13 -15.7 3.8 79 -18.5 -1.2
04:30 1021 30.15 851 25.13 -15.8 3.5 79 -18.6 -1.6
04:35 1021 30.15 851 25.13 -16 3.3 79 -18.9 -2
04:40 1021 30.15 851 25.13 -16.1 3 78 -19.1 -2.3
04:45 1021 30.15 851 25.13 -16.3 2.7 79 -19.2 -2.5
04:50 1021 30.15 851 25.13 -16.4 2.4 80 -19.1 -2.3
04:55 1021 30.15 851 25.13 -16 3.1 80 -18.7 -1.7
05:00 1021 30.15 851 25.13 -15.6 3.9 80 -18.4 -1.1
05:05 1021 30.15 851 25.13 -15.8 3.7 78 -18.8 -1.8
05:10 1021 30.15 851 25.13 -16.4 2.5 81 -18.9 -2.1
05:15 1021 30.15 851 25.13 -16.7 2 82 -19.1 -2.4
05:20 1021 30.15 851 25.13 -16.7 1.9 81 -19.3 -2.7
05:25 1022 30.18 851 25.13 -16.8 1.7 82 -19.2 -2.6
05:30 1022 30.18 851 25.13 -16.6 2.2 82 -19 -2.2
05:35 1022 30.18 851 25.13 -16.2 2.8 81 -18.9 -1.9
05:40 1022 30.18 851 25.13 -16.1 3 80 -18.8 -1.9
05:45 1022 30.18 851 25.13 -16 3.1 80 -18.7 -1.7
05:50 1022 30.18 851 25.13 -16.1 3.1 81 -18.7 -1.6
05:55 1022 30.18 851 25.13 -16 3.3 79 -18.8 -1.8
06:00 1022 30.18 851 25.13 -15.6 4 76 -19 -2.1
06:05 1022 30.18 851 25.13 -15.8 3.7 76 -19.1 -2.3
06:10 1022 30.18 851 25.13 -16 3.2 77 -19.1 -2.5
06:15 1022 30.18 851 25.13 -16.1 3 80 -18.8 -1.8
06:20 1022 30.18 851 25.13 -15.7 3.8 78 -18.7 -1.6
06:25 1022 30.18 851 25.13 -15.8 3.6 78 -18.8 -1.9
06:30 1022 30.18 851 25.13 -16.5 2.4 79 -19.2 -2.6
06:35 1022 30.18 851 25.13 -17.1 1.2 80 -19.8 -3.6
06:40 1022 30.18 851 25.13 -17.4 0.6 81 -19.9 -3.8
06:45 1022 30.18 851 25.13 -17.4 0.6 82 -19.9 -3.8
06:50 1022 30.18 851 25.13 -17.4 0.8 82 -19.8 -3.6
06:55 1022 30.18 851 25.13 -17.2 1.1 81 -19.7 -3.4
07:00 1022 30.18 851 25.13 -17.1 1.3 81 -19.6 -3.3
07:05 1022 30.18 851 25.13 -17.3 0.8 83 -19.6 -3.3
07:10 1022 30.18 851 25.13 -17.2 1 82 -19.7 -3.4
07:15 1022 30.18 851 25.13 -17.1 1.2 82 -19.5 -3.1
07:20 1022 30.18 851 25.13 -17.1 1.3 82 -19.5 -3.1
07:25 1022 30.18 851 25.13 -17 1.4 82 -19.4 -2.9
07:30 1022 30.18 851 25.13 -16.8 1.8 81 -19.3 -2.7
07:35 1022 30.18 852 25.16 -16.6 2.1 81 -19.2 -2.5
07:40 1022 30.18 851 25.13 -16.4 2.6 80 -19 -2.2
07:45 1022 30.18 851 25.13 -16.3 2.7 80 -19 -2.1
07:50 1022 30.18 851 25.13 -16.3 2.8 79 -19 -2.3
07:55 1022 30.18 851 25.13 -16.3 2.6 79 -19.1 -2.4
08:00 1022 30.18 851 25.13 -16.7 2 81 -19.3 -2.7
08:05 1022 30.18 851 25.13 -16.9 1.6 79 -19.7 -3.4
08:10 1022 30.18 851 25.13 -17 1.5 78 -19.9 -3.8
08:15 1022 30.18 851 25.13 -17.2 1.1 80 -19.8 -3.7
08:20 1022 30.18 851 25.13 -17.2 1 80 -19.9 -3.9
08:25 1022 30.18 851 25.13 -16.9 1.5 79 -19.7 -3.5
08:30 1022 30.18 851 25.13 -16.6 2.2 78 -19.6 -3.3
08:35 1022 30.18 852 25.16 -16.3 2.7 78 -19.3 -2.8
08:40 1022 30.18 852 25.16 -15.9 3.5 75 -19.3 -2.7
08:45 1022 30.18 852 25.16 -15.6 3.9 75 -19 -2.2
08:50 1023 30.21 852 25.16 -15.2 4.6 74 -18.8 -1.9
08:55 1023 30.21 852 25.16 -14.9 5.2 74 -18.5 -1.3
09:00 1023 30.21 852 25.16 -14.4 6.1 71 -18.5 -1.4
09:05 1023 30.21 852 25.16 -14.4 6.1 71 -18.5 -1.3
09:10 1023 30.21 852 25.16 -14.4 6.1 72 -18.4 -1.1
09:15 1023 30.21 852 25.16 -13.8 7.1 70 -18.2 -0.8
09:20 1023 30.21 852 25.16 -13.7 7.3 70 -18.1 -0.5
09:25 1023 30.21 852 25.16 -13.3 8.2 68 -18 -0.5
09:30 1023 30.21 852 25.16 -13.2 8.3 67 -18.2 -0.7
09:35 1023 30.21 852 25.16 -13.5 7.7 69 -18.1 -0.6
09:40 1023 30.21 852 25.16 -13.3 8.1 68 -17.9 -0.3
09:45 1023 30.21 852 25.16 -13 8.7 68 -17.8 -0
09:50 1023 30.21 852 25.16 -12.6 9.2 65 -17.9 -0.2
09:55 1023 30.21 852 25.16 -11.7 10.9 63 -17.4 0.7
10:00 1023 30.21 852 25.16 -11.6 11.2 62 -17.4 0.6
10:05 1023 30.21 852 25.16 -11.5 11.3 63 -17.2 1
10:10 1023 30.21 852 25.16 -10.8 12.6 60 -17.1 1.2
10:15 1023 30.21 852 25.16 -10.6 12.9 60 -17 1.4
10:20 1023 30.21 852 25.16 -10.2 13.7 58 -16.9 1.5
10:25 1023 30.21 852 25.16 -10.2 13.7 58 -17 1.4
10:30 1023 30.21 852 25.16 -10.2 13.6 58 -16.9 1.6
10:35 1023 30.21 852 25.16 -10.3 13.5 59 -16.9 1.6
10:40 1023 30.21 852 25.16 -10.1 13.8 59 -16.8 1.8
10:45 1023 30.21 852 25.16 -10.7 12.7 60 -17 1.4
10:50 1023 30.21 852 25.16 -10.8 12.6 59 -17.3 0.8
10:55 1023 30.21 852 25.16 -10.6 13 58 -17.3 0.9
11:00 1023 30.21 852 25.16 -10.6 13 60 -16.9 1.5
11:05 1023 30.21 852 25.16 -10.2 13.7 58 -16.9 1.5
11:10 1023 30.21 852 25.16 -10.2 13.7 59 -16.7 1.9
11:15 1023 30.21 852 25.16 -10.1 13.9 57 -17 1.4
11:20 1023 30.21 852 25.16 -10.2 13.7 58 -17 1.4
11:25 1023 30.21 852 25.16 -10.1 13.9 58 -16.9 1.7
11:30 1023 30.21 852 25.16 -10 14 59 -16.6 2
11:35 1023 30.21 852 25.16 -9.7 14.5 56 -17 1.4
11:40 1023 30.21 852 25.16 -9.9 14.1 57 -17 1.5
11:45 1023 30.21 852 25.16 -11.5 11.4 63 -17.2 1.1
11:50 1023 30.21 852 25.16 -10.2 13.6 55 -17.5 0.4
11:55 1023 30.21 852 25.16 -10 14.1 55 -17.3 0.8
12:00 1023 30.21 852 25.16 -9.9 14.1 57 -17 1.5
12:05 1022 30.18 852 25.16 -10.2 13.6 58 -16.9 1.5
12:10 1022 30.18 852 25.16 -10 13.9 57 -17.1 1.2
12:15 1022 30.18 852 25.16 -9.9 14.2 57 -17 1.4
12:20 1022 30.18 852 25.16 -9.6 14.7 54 -17.3 0.9
12:25 1022 30.18 852 25.16 -9.3 15.2 54 -17.1 1.3
12:30 1022 30.18 851 25.13 -9.5 14.9 54 -17.2 1
12:35 1022 30.18 851 25.13 -9.7 14.6 55 -17.2 1.1
12:40 1022 30.18 851 25.13 -9.9 14.1 56 -17.1 1.1
12:45 1022 30.18 851 25.13 -10.2 13.6 58 -17 1.4
12:50 1022 30.18 851 25.13 -10.2 13.6 57 -17.3 0.9
12:55 1022 30.18 851 25.13 -9.9 14.2 55 -17.2 1
13:00 1022 30.18 851 25.13 -10.1 13.8 56 -17.2 1
13:05 1022 30.18 851 25.13 -10.3 13.4 57 -17.4 0.7
13:10 1022 30.18 851 25.13 -10 14.1 55 -17.3 0.9
13:15 1022 30.18 851 25.13 -9.7 14.6 54 -17.3 0.8
13:20 1022 30.18 851 25.13 -9.4 15 54 -17.2 1
13:25 1022 30.18 851 25.13 -9.1 15.6 52 -17.3 0.9
13:30 1022 30.18 851 25.13 -9.2 15.5 52 -17.4 0.7
13:35 1022 30.18 851 25.13 -9.1 15.6 52 -17.3 0.9
13:40 1022 30.18 851 25.13 -9.1 15.6 54 -16.9 1.6
13:45 1022 30.18 851 25.13 -9.3 15.2 55 -16.7 1.9
13:50 1022 30.18 851 25.13 -9.2 15.4 53 -17.2 1.1
13:55 1022 30.18 851 25.13 -8.9 16 53 -16.9 1.5
14:00 1022 30.18 851 25.13 -8.9 16 55 -16.4 2.4
14:05 1022 30.18 851 25.13 -9.1 15.6 52 -17.1 1.2
14:10 1022 30.18 851 25.13 -9 15.8 54 -16.8 1.7
14:15 1022 30.18 851 25.13 -8.6 16.4 52 -16.9 1.5
14:20 1022 30.18 851 25.13 -8.4 16.9 51 -16.8 1.7
14:25 1022 30.18 851 25.13 -9 15.8 53 -17 1.4
14:30 1022 30.18 851 25.13 -9.2 15.5 53 -17.2 1.1
14:35 1022 30.18 851 25.13 -9 15.9 53 -17 1.5
14:40 1022 30.18 851 25.13 -9.1 15.7 53 -17.1 1.3
14:45 1022 30.18 851 25.13 -9.1 15.5 53 -17.1 1.2
14:50 1022 30.18 851 25.13 -9.4 15 54 -17.1 1.3
14:55 1022 30.18 851 25.13 -9.4 15 54 -17.1 1.2
15:00 1022 30.18 851 25.13 -9 15.9 52 -17.1 1.3
15:05 1022 30.18 851 25.13 -8.8 16.1 53 -16.9 1.7
15:10 1022 30.18 851 25.13 -9.1 15.6 53 -17.2 1.1
15:15 1022 30.18 851 25.13 -9.8 14.3 57 -16.8 1.8
15:20 1022 30.18 851 25.13 -9.9 14.1 55 -17.5 0.6
15:25 1022 30.18 851 25.13 -9.5 15 54 -17 1.3
15:30 1022 30.18 851 25.13 -9.4 15 54 -17.2 1.1
15:35 1022 30.18 851 25.13 -9.5 15 54 -17.2 1.1
15:40 1022 30.18 851 25.13 -9.5 15 55 -17 1.4
15:45 1022 30.18 852 25.16 -9.4 15.1 54 -17.1 1.3
15:50 1022 30.18 852 25.16 -9.3 15.2 53 -17.2 1
15:55 1022 30.18 852 25.16 -9.3 15.2 52 -17.5 0.5
16:00 1023 30.21 852 25.16 -9.4 15.2 52 -17.5 0.4
16:05 1023 30.21 852 25.16 -9.4 15 53 -17.4 0.7
16:10 1023 30.21 852 25.16 -9.6 14.7 53 -17.5 0.5
16:15 1023 30.21 852 25.16 -9.7 14.5 54 -17.4 0.8
16:20 1023 30.21 852 25.16 -10.1 13.9 56 -17.2 1.1
16:25 1023 30.21 852 25.16 -10.4 13.2 57 -17.3 0.8
16:30 1023 30.21 852 25.16 -10.9 12.4 59 -17.4 0.8
16:35 1023 30.21 852 25.16 -11.2 11.8 62 -17.2 1.1
16:40 1023 30.21 852 25.16 -11.6 11.2 63 -17.3 0.9
16:45 1023 30.21 852 25.16 -11.8 10.7 63 -17.6 0.3
16:50 1023 30.21 852 25.16 -11.9 10.5 63 -17.6 0.4
16:55 1023 30.21 852 25.16 -11.9 10.5 64 -17.5 0.5
17:00 1023 30.21 852 25.16 -12 10.4 62 -17.8 -0.1
17:05 1023 30.21 852 25.16 -11.9 10.5 64 -17.5 0.5
17:10 1023 30.21 852 25.16 -12 10.4 63 -17.6 0.3
17:15 1023 30.21 852 25.16 -12.6 9.3 67 -17.5 0.5
17:20 1023 30.21 852 25.16 -12.5 9.4 67 -17.4 0.7
17:25 1023 30.21 852 25.16 -12.6 9.2 68 -17.4 0.7
17:30 1023 30.21 852 25.16 -12.6 9.4 67 -17.4 0.6
17:35 1023 30.21 852 25.16 -12.5 9.5 67 -17.5 0.5
17:40 1023 30.21 852 25.16 -12.5 9.5 68 -17.2 1
17:45 1023 30.21 852 25.16 -12.5 9.5 68 -17.2 1
17:50 1023 30.21 852 25.16 -12.5 9.5 68 -17.3 0.9
17:55 1023 30.21 852 25.16 -12.5 9.5 68 -17.2 1
18:00 1023 30.21 852 25.16 -12.7 9.2 69 -17.2 1.1
18:05 1023 30.21 852 25.16 -12.9 8.8 73 -16.8 1.8
18:10 1023 30.21 852 25.16 -13.2 8.2 75 -16.8 1.8
18:15 1023 30.21 852 25.16 -13.3 8.1 75 -16.8 1.7
18:20 1023 30.21 852 25.16 -13.4 8 75 -16.9 1.7
18:25 1023 30.21 852 25.16 -13.2 8.2 75 -16.7 1.9
18:30 1023 30.21 852 25.16 -13.2 8.2 76 -16.6 2
18:35 1023 30.21 852 25.16 -13.2 8.3 76 -16.6 2.1
18:40 1023 30.21 852 25.16 -13.1 8.4 76 -16.6 2.2
18:45 1023 30.21 852 25.16 -13.1 8.4 76 -16.5 2.2
18:50 1023 30.21 852 25.16 -13.1 8.4 77 -16.4 2.5
18:55 1023 30.21 852 25.16 -13.1 8.5 76 -16.4 2.4
19:00 1023 30.21 852 25.16 -13.2 8.3 77 -16.4 2.4
19:05 1023 30.21 852 25.16 -13.2 8.2 76 -16.7 2
19:10 1023 30.21 852 25.16 -13.6 7.6 77 -16.8 1.8
19:15 1023 30.21 852 25.16 -14 6.8 79 -16.9 1.6
19:20 1023 30.21 852 25.16 -14 6.8 79 -17 1.5
19:25 1023 30.21 852 25.16 -13.9 7 79 -16.7 1.9
19:30 1023 30.21 852 25.16 -13.7 7.3 78 -16.7 1.9
19:35 1023 30.21 852 25.16 -13.8 7.2 79 -16.7 1.9
19:40 1023 30.21 852 25.16 -13.9 7 79 -16.7 1.9
19:45 1023 30.21 852 25.16 -13.8 7.2 79 -16.7 1.9
19:50 1023 30.21 852 25.16 -13.8 7.2 79 -16.6 2
19:55 1023 30.21 852 25.16 -14 6.8 80 -16.7 1.9
20:00 1023 30.21 852 25.16 -14.1 6.7 80 -16.8 1.8
20:05 1023 30.21 852 25.16 -14 6.9 80 -16.7 2
20:10 1023 30.21 852 25.16 -13.7 7.3 79 -16.6 2.1
20:15 1023 30.21 852 25.16 -13.7 7.4 79 -16.6 2.2
20:20 1023 30.21 853 25.19 -13.7 7.3 80 -16.5 2.2
20:25 1023 30.21 853 25.19 -14 6.8 81 -16.6 2.1
20:30 1023 30.21 853 25.19 -14.3 6.3 82 -16.7 2
20:35 1023 30.21 853 25.19 -14.3 6.3 83 -16.6 2.1
20:40 1023 30.21 853 25.19 -14.2 6.5 81 -16.7 2
20:45 1023 30.21 853 25.19 -14.5 5.9 82 -17 1.4
20:50 1023 30.21 853 25.19 -14.7 5.5 82 -17.2 1.1
20:55 1023 30.21 853 25.19 -15 5.1 82 -17.3 0.8
21:00 1023 30.21 853 25.19 -15.1 4.8 83 -17.4 0.7
21:05 1023 30.21 853 25.19 -15.2 4.7 83 -17.4 0.7
21:10 1023 30.21 853 25.19 -15.2 4.7 84 -17.3 0.9
21:15 1023 30.21 853 25.19 -15 5 84 -17.2 1
21:20 1023 30.21 853 25.19 -15 5.1 84 -17.1 1.2
21:25 1023 30.21 853 25.19 -14.9 5.1 85 -16.9 1.6
21:30 1023 30.21 853 25.19 -14.6 5.8 83 -16.8 1.7
21:35 1023 30.21 853 25.19 -14.4 6 83 -16.7 2
21:40 1023 30.21 853 25.19 -14.1 6.6 81 -16.7 2
21:45 1023 30.21 853 25.19 -14.3 6.4 82 -16.7 2
21:50 1023 30.21 853 25.19 -14.2 6.5 82 -16.6 2.1
21:55 1023 30.21 853 25.19 -14 6.8 81 -16.6 2.1
22:00 1023 30.21 853 25.19 -14 6.7 81 -16.6 2.2
22:05 1023 30.21 853 25.19 -14.4 6.1 83 -16.7 1.9
22:10 1023 30.21 853 25.19 -14.9 5.1 83 -17.2 1.1
22:15 1023 30.21 853 25.19 -15.3 4.4 85 -17.4 0.7
22:20 1023 30.21 853 25.19 -15.4 4.2 85 -17.4 0.7
22:25 1023 30.21 853 25.19 -15.3 4.5 84 -17.4 0.6
22:30 1023 30.21 853 25.19 -15.4 4.3 85 -17.4 0.6
22:35 1023 30.21 853 25.19 -15.5 4.1 85 -17.5 0.6
22:40 1023 30.21 853 25.19 -15.6 4 86 -17.5 0.6
22:45 1023 30.21 853 25.19 -15.7 3.8 86 -17.5 0.6
22:50 1023 30.21 853 25.19 -15.7 3.8 87 -17.4 0.6
22:55 1023 30.21 853 25.19 -15.3 4.5 85 -17.3 0.9
23:00 1023 30.21 853 25.19 -15 5.1 83 -17.2 1.1
23:05 1023 30.21 853 25.19 -14.8 5.3 83 -17.1 1.2
23:10 1023 30.21 853 25.19 -14.8 5.4 82 -17.2 1.1
23:15 1023 30.21 853 25.19 -14.9 5.2 83 -17.1 1.2
23:20 1024 30.24 853 25.19 -14.9 5.3 82 -17.2 1
23:25 1024 30.24 853 25.19 -14.9 5.1 82 -17.3 0.8
23:30 1024 30.24 853 25.19 -15.3 4.5 84 -17.5 0.6
23:35 1024 30.24 853 25.19 -15.2 4.6 83 -17.5 0.5
23:40 1024 30.24 853 25.19 -15.4 4.3 83 -17.7 0.2
23:45 1024 30.24 853 25.19 -15.7 3.7 84 -17.9 -0.2
23:50 1024 30.24 853 25.19 -15.8 3.7 83 -18 -0.4
23:55 1024 30.24 853 25.19 -15.9 3.3 83 -18.2 -0.8
24:00 1024 30.24 853 25.19 -16.2 2.8 85 -18.2 -0.7